createdAt,value
2022-08-17T00:01:51.595Z,99.00
2022-08-17T00:04:21.093Z,99.00
2022-08-17T00:06:50.168Z,99.00
2022-08-17T00:09:19.355Z,99.10
2022-08-17T00:12:34.883Z,99.20
2022-08-17T00:14:37.496Z,99.30
2022-08-17T00:17:06.457Z,99.20
2022-08-17T00:19:34.200Z,99.30
2022-08-17T00:22:32.353Z,99.40
2022-08-17T00:24:51.001Z,99.40
2022-08-17T00:27:19.437Z,99.40
2022-08-17T00:29:47.128Z,99.40
2022-08-17T00:33:14.544Z,99.40
2022-08-17T00:35:08.914Z,99.60
2022-08-17T00:37:36.837Z,99.50
2022-08-17T00:40:05.278Z,99.40
2022-08-17T00:42:33.659Z,99.50
2022-08-17T00:45:01.463Z,99.50
2022-08-17T00:47:29.072Z,99.60
2022-08-17T00:49:56.728Z,99.60
2022-08-17T00:52:30.383Z,99.70
2022-08-17T00:54:59.290Z,99.70
2022-08-17T00:57:31.098Z,99.50
2022-08-17T01:00:09.213Z,99.50
2022-08-17T01:02:42.497Z,99.40
2022-08-17T01:05:21.014Z,99.50
2022-08-17T01:07:52.941Z,99.50
2022-08-17T01:11:00.533Z,99.50
2022-08-17T01:13:16.082Z,99.60
2022-08-17T01:15:48.778Z,99.50
2022-08-17T01:18:17.023Z,99.60
2022-08-17T01:20:50.873Z,99.60
2022-08-17T01:23:21.403Z,99.60
2022-08-17T01:25:59.805Z,99.50
2022-08-17T01:28:53.178Z,99.50
2022-08-17T01:31:18.797Z,99.40
2022-08-17T01:33:46.429Z,99.40
2022-08-17T01:36:14.384Z,99.40
2022-08-17T01:38:42.183Z,99.50
2022-08-17T01:41:13.520Z,99.50
2022-08-17T01:43:57.648Z,99.50
2022-08-17T01:46:31.579Z,99.40
2022-08-17T01:49:01.350Z,99.40
2022-08-17T01:51:33.076Z,99.40
2022-08-17T01:54:07.804Z,99.50
2022-08-17T01:56:39.747Z,99.50
2022-08-17T01:59:07.465Z,99.60
2022-08-17T02:01:35.885Z,99.60
2022-08-17T02:04:05.613Z,99.70
2022-08-17T02:06:52.474Z,99.70
2022-08-17T02:09:25.798Z,99.80
2022-08-17T02:11:56.312Z,99.80
2022-08-17T02:14:25.806Z,99.90
2022-08-17T02:16:54.462Z,99.90
2022-08-17T02:19:22.279Z,99.90
2022-08-17T02:21:51.650Z,99.90
2022-08-17T02:24:59.901Z,99.90
2022-08-17T02:27:22.348Z,99.90
2022-08-17T02:29:50.021Z,99.90
2022-08-17T02:32:27.595Z,99.90
2022-08-17T02:34:57.560Z,99.90
2022-08-17T02:37:26.780Z,99.90
2022-08-17T02:39:57.144Z,99.90
2022-08-17T02:42:33.977Z,99.90
2022-08-17T02:45:03.885Z,99.90
2022-08-17T02:47:31.525Z,99.90
2022-08-17T02:49:59.294Z,99.90
2022-08-17T02:52:43.121Z,99.90
2022-08-17T02:55:23.935Z,99.90
2022-08-17T02:57:53.147Z,99.90
2022-08-17T03:00:30.195Z,99.90
2022-08-17T03:02:57.848Z,99.90
2022-08-17T03:05:28.059Z,99.90
2022-08-17T03:07:56.785Z,99.90
2022-08-17T03:10:25.544Z,99.90
2022-08-17T03:12:54.290Z,99.90
2022-08-17T03:15:28.933Z,99.90
2022-08-17T03:17:57.812Z,99.90
2022-08-17T03:20:27.104Z,99.90
2022-08-17T03:23:01.766Z,99.90
2022-08-17T03:25:36.661Z,99.90
2022-08-17T03:28:07.046Z,99.90
2022-08-17T03:30:36.216Z,99.90
2022-08-17T03:33:06.612Z,99.90
2022-08-17T03:35:36.491Z,99.90
2022-08-17T03:38:04.849Z,99.90
2022-08-17T03:40:55.026Z,99.90
2022-08-17T03:43:22.600Z,99.90
2022-08-17T03:46:19.986Z,99.90
2022-08-17T03:49:17.630Z,99.90
2022-08-17T03:52:04.057Z,99.90
2022-08-17T03:54:50.325Z,99.90
2022-08-17T03:57:19.201Z,99.90
2022-08-17T03:59:47.981Z,99.90
2022-08-17T04:02:19.288Z,99.90
2022-08-17T04:04:47.106Z,99.90
2022-08-17T04:07:14.668Z,99.90
2022-08-17T04:09:43.062Z,99.90
2022-08-17T04:12:11.292Z,99.90
2022-08-17T04:14:52.909Z,99.90
2022-08-17T04:17:24.773Z,99.90
2022-08-17T04:19:53.654Z,99.90
2022-08-17T04:22:30.424Z,99.90
2022-08-17T04:25:06.488Z,99.90
2022-08-17T04:27:34.257Z,99.90
2022-08-17T04:30:02.637Z,99.90
2022-08-17T04:33:03.747Z,99.90
2022-08-17T04:35:24.174Z,99.90
2022-08-17T04:37:52.035Z,99.90
2022-08-17T04:40:39.951Z,99.90
2022-08-17T04:43:18.790Z,99.90
2022-08-17T04:45:55.477Z,99.90
2022-08-17T04:48:36.532Z,99.90
2022-08-17T04:51:10.004Z,99.90
2022-08-17T04:53:43.124Z,99.90
2022-08-17T04:56:16.750Z,99.90
2022-08-17T04:58:46.532Z,99.90
2022-08-17T05:01:15.633Z,99.90
2022-08-17T05:03:44.004Z,99.90
2022-08-17T05:06:11.811Z,99.90
2022-08-17T05:08:40.038Z,99.90
2022-08-17T05:11:08.418Z,99.90
2022-08-17T05:13:36.967Z,99.90
2022-08-17T05:16:04.988Z,99.90
2022-08-17T05:18:33.184Z,99.90
2022-08-17T05:21:02.293Z,99.90
2022-08-17T05:23:37.860Z,99.90
2022-08-17T05:26:26.495Z,99.90
2022-08-17T05:28:59.621Z,99.90
2022-08-17T05:31:29.388Z,99.90
2022-08-17T05:33:57.795Z,99.90
2022-08-17T05:36:42.368Z,99.90
2022-08-17T05:39:16.452Z,99.90
2022-08-17T05:41:47.861Z,99.90
2022-08-17T05:44:16.419Z,99.90
2022-08-17T05:46:49.995Z,99.90
2022-08-17T05:49:22.706Z,99.90
2022-08-17T05:51:56.281Z,99.90
2022-08-17T05:54:32.272Z,99.90
2022-08-17T05:57:28.015Z,99.90
2022-08-17T06:00:33.979Z,99.90
2022-08-17T06:03:40.207Z,99.90
2022-08-17T06:06:34.996Z,99.90
2022-08-17T06:09:14.706Z,99.90
2022-08-17T06:12:00.435Z,99.90
2022-08-17T06:14:55.830Z,99.90
2022-08-17T06:17:27.080Z,99.90
2022-08-17T06:20:03.006Z,99.90
2022-08-17T06:22:36.642Z,99.90
2022-08-17T06:25:34.919Z,99.90
2022-08-17T06:28:13.709Z,99.90
2022-08-17T06:31:00.819Z,99.90
2022-08-17T06:33:36.003Z,99.90
2022-08-17T06:36:29.214Z,99.90
2022-08-17T06:39:24.359Z,99.90
2022-08-17T06:42:00.834Z,99.90
2022-08-17T06:44:43.651Z,99.90
2022-08-17T06:47:28.465Z,99.90
2022-08-17T06:50:37.753Z,99.90
2022-08-17T06:53:22.305Z,99.90
2022-08-17T06:56:06.796Z,99.90
2022-08-17T06:58:37.394Z,99.90
2022-08-17T07:01:09.859Z,99.90
2022-08-17T07:04:05.119Z,99.90
2022-08-17T07:06:52.684Z,99.90
2022-08-17T07:09:26.337Z,99.90
2022-08-17T07:12:03.167Z,99.90
2022-08-17T07:14:36.582Z,99.90
2022-08-17T07:17:15.945Z,99.90
2022-08-17T07:19:47.636Z,99.90
2022-08-17T07:22:28.090Z,99.90
2022-08-17T07:24:59.867Z,99.90
2022-08-17T07:27:31.090Z,99.90
2022-08-17T07:30:17.509Z,99.90
2022-08-17T07:33:08.401Z,99.90
2022-08-17T07:35:43.910Z,99.90
2022-08-17T07:38:25.259Z,99.90
2022-08-17T07:41:05.173Z,99.90
2022-08-17T07:43:41.779Z,99.90
2022-08-17T07:46:53.957Z,99.90
2022-08-17T07:49:39.344Z,99.90
2022-08-17T07:52:48.260Z,99.90
2022-08-17T07:54:59.244Z,99.90
2022-08-17T07:57:32.415Z,99.90
2022-08-17T08:00:00.026Z,99.90
2022-08-17T08:02:34.357Z,99.90
2022-08-17T08:05:29.962Z,99.90
2022-08-17T08:08:36.743Z,99.90
2022-08-17T08:11:11.525Z,99.90
2022-08-17T08:13:43.843Z,99.90
2022-08-17T08:16:17.898Z,99.90
2022-08-17T08:18:54.392Z,99.90
2022-08-17T08:21:44.769Z,99.90
2022-08-17T08:24:34.724Z,99.90
2022-08-17T08:27:25.332Z,99.90
2022-08-17T08:30:12.349Z,99.90
2022-08-17T08:33:09.680Z,99.90
2022-08-17T08:37:14.761Z,99.90
2022-08-17T08:39:10.338Z,99.90
2022-08-17T08:41:48.387Z,99.90
2022-08-17T08:45:00.853Z,99.90
2022-08-17T08:47:44.280Z,99.90
2022-08-17T08:50:38.769Z,99.90
2022-08-17T08:53:19.006Z,99.90
2022-08-17T08:56:05.022Z,99.90
2022-08-17T08:58:42.703Z,99.70
2022-08-17T09:01:21.142Z,99.40
2022-08-17T09:04:24.238Z,99.10
2022-08-17T09:07:26.211Z,98.60
2022-08-17T09:10:14.040Z,98.30
2022-08-17T09:13:09.946Z,98.10
2022-08-17T09:15:46.683Z,97.80
2022-08-17T09:19:02.280Z,97.30
2022-08-17T09:21:13.905Z,96.90
2022-08-17T09:24:14.660Z,96.00
2022-08-17T09:27:13.411Z,95.30
2022-08-17T09:29:49.583Z,94.60
2022-08-17T09:32:22.520Z,93.90
2022-08-17T09:34:54.814Z,93.50
2022-08-17T09:37:26.148Z,93.20
2022-08-17T09:40:17.538Z,92.50
2022-08-17T09:42:56.230Z,91.90
2022-08-17T09:45:32.365Z,91.60
2022-08-17T09:48:07.853Z,91.10
2022-08-17T09:51:03.118Z,91.00
2022-08-17T09:53:31.776Z,90.90
2022-08-17T09:57:18.189Z,90.70
2022-08-17T10:00:16.689Z,90.20
2022-08-17T10:03:09.667Z,90.10
2022-08-17T10:06:07.841Z,88.90
2022-08-17T10:08:55.336Z,87.80
2022-08-17T10:11:51.497Z,87.60
2022-08-17T10:14:57.124Z,87.00
2022-08-17T10:18:04.060Z,86.00
2022-08-17T10:21:15.444Z,85.60
2022-08-17T10:24:04.543Z,86.10
2022-08-17T10:26:55.982Z,85.60
2022-08-17T10:29:49.114Z,85.00
2022-08-17T10:32:40.925Z,84.10
2022-08-17T10:35:20.581Z,83.80
2022-08-17T10:38:27.698Z,82.70
2022-08-17T10:41:13.229Z,81.60
2022-08-17T10:44:37.346Z,81.20
2022-08-17T10:47:11.399Z,80.30
2022-08-17T10:49:47.821Z,81.00
2022-08-17T10:52:27.753Z,79.60
2022-08-17T10:54:58.762Z,79.20
2022-08-17T10:57:26.890Z,78.30
2022-08-17T10:59:56.913Z,77.90
2022-08-17T11:02:54.301Z,77.50
2022-08-17T11:05:43.751Z,77.00
2022-08-17T11:08:26.337Z,77.50
2022-08-17T11:11:12.570Z,76.90
2022-08-17T11:14:17.760Z,76.60
2022-08-17T11:17:09.213Z,75.70
2022-08-17T11:19:51.209Z,75.50
2022-08-17T11:22:37.663Z,74.90
2022-08-17T11:25:38.456Z,74.40
2022-08-17T11:28:08.373Z,73.90
2022-08-17T11:30:48.718Z,75.10
2022-08-17T11:33:36.764Z,73.80
2022-08-17T11:36:24.452Z,73.20
2022-08-17T11:39:20.929Z,73.00
2022-08-17T11:41:56.338Z,73.10
2022-08-17T11:44:51.663Z,73.30
2022-08-17T11:48:23.747Z,72.70
2022-08-17T11:51:13.172Z,73.30
2022-08-17T11:54:14.659Z,73.70
2022-08-17T11:56:51.168Z,74.70
2022-08-17T11:59:46.010Z,75.00
2022-08-17T12:02:27.992Z,75.00
2022-08-17T12:05:17.491Z,75.50
2022-08-17T12:07:51.943Z,75.70
2022-08-17T12:10:23.670Z,76.00
2022-08-17T12:12:54.076Z,75.50
2022-08-17T12:15:28.651Z,75.50
2022-08-17T12:17:57.184Z,75.80
2022-08-17T12:20:40.293Z,76.40
2022-08-17T12:23:17.297Z,75.20
2022-08-17T12:25:59.355Z,75.20
2022-08-17T12:28:34.826Z,75.20
2022-08-17T12:31:27.338Z,75.20
2022-08-17T12:33:55.322Z,75.00
2022-08-17T12:36:25.350Z,75.20
2022-08-17T12:39:14.272Z,75.20
2022-08-17T12:41:47.023Z,75.20
2022-08-17T12:44:16.752Z,75.40
2022-08-17T12:47:20.984Z,75.40
2022-08-17T12:49:52.929Z,75.60
2022-08-17T12:52:23.685Z,76.10
2022-08-17T12:55:06.873Z,76.10
2022-08-17T12:57:42.678Z,76.40
2022-08-17T13:00:18.307Z,76.80
2022-08-17T13:03:05.946Z,77.00
2022-08-17T13:05:55.529Z,77.30
2022-08-17T13:08:33.695Z,76.90
2022-08-17T13:11:11.509Z,77.00
2022-08-17T13:13:43.093Z,77.00
2022-08-17T13:16:14.347Z,77.00
2022-08-17T13:18:41.939Z,77.20
2022-08-17T13:21:27.405Z,77.00
2022-08-17T13:24:13.855Z,77.10
2022-08-17T13:26:46.629Z,77.30
2022-08-17T13:29:39.266Z,77.40
2022-08-17T13:32:13.167Z,77.70
2022-08-17T13:35:14.931Z,77.80
2022-08-17T13:37:40.665Z,78.10
2022-08-17T13:40:10.706Z,78.60
2022-08-17T13:42:52.764Z,79.20
2022-08-17T13:45:36.666Z,79.40
2022-08-17T13:48:11.947Z,79.30
2022-08-17T13:50:57.267Z,79.20
2022-08-17T13:53:50.857Z,78.90
2022-08-17T13:56:37.891Z,78.60
2022-08-17T13:59:13.891Z,78.50
2022-08-17T14:01:52.573Z,78.70
2022-08-17T14:04:29.365Z,78.70
2022-08-17T14:07:00.205Z,78.50
2022-08-17T14:09:37.396Z,78.70
2022-08-17T14:12:10.674Z,78.20
2022-08-17T14:14:39.784Z,77.80
2022-08-17T14:17:07.966Z,77.30
2022-08-17T14:19:36.562Z,77.90
2022-08-17T14:22:08.839Z,77.10
2022-08-17T14:24:44.589Z,77.10
2022-08-17T14:27:12.797Z,77.20
2022-08-17T14:29:41.833Z,77.20
2022-08-17T14:32:20.441Z,77.30
2022-08-17T14:34:49.645Z,77.60
2022-08-17T14:37:19.455Z,77.70
2022-08-17T14:39:47.819Z,77.10
2022-08-17T14:42:17.819Z,76.80
2022-08-17T14:44:45.839Z,76.60
2022-08-17T14:47:13.910Z,76.00
2022-08-17T14:49:42.673Z,75.70
2022-08-17T14:52:13.533Z,75.70
2022-08-17T14:54:45.829Z,76.00
2022-08-17T14:57:34.023Z,76.40
2022-08-17T15:00:03.011Z,76.70
2022-08-17T15:02:31.309Z,77.10
2022-08-17T15:05:04.804Z,77.60
2022-08-17T15:07:32.558Z,78.30
2022-08-17T15:10:01.420Z,79.00
2022-08-17T15:12:34.093Z,79.50
2022-08-17T15:15:05.337Z,80.10
2022-08-17T15:17:44.446Z,80.70
2022-08-17T15:20:15.802Z,81.10
2022-08-17T15:22:45.311Z,81.20
2022-08-17T15:25:13.231Z,81.80
2022-08-17T15:27:41.287Z,82.90
2022-08-17T15:30:10.074Z,82.60
2022-08-17T15:32:40.962Z,82.40
2022-08-17T15:35:19.314Z,82.30
2022-08-17T15:38:11.817Z,82.10
2022-08-17T15:40:46.496Z,82.20
2022-08-17T15:43:27.338Z,82.10
2022-08-17T15:46:12.587Z,82.10
2022-08-17T15:48:42.619Z,82.20
2022-08-17T15:51:22.003Z,81.60
2022-08-17T15:53:59.290Z,81.40
2022-08-17T15:56:32.802Z,81.10
2022-08-17T15:59:00.518Z,80.90
2022-08-17T16:02:33.627Z,80.80
2022-08-17T16:04:30.545Z,80.90
2022-08-17T16:07:00.343Z,80.90
2022-08-17T16:09:28.655Z,80.70
2022-08-17T16:11:56.764Z,80.80
2022-08-17T16:14:33.946Z,80.80
2022-08-17T16:17:04.806Z,81.10
2022-08-17T16:19:52.818Z,81.40
2022-08-17T16:22:41.071Z,81.30
2022-08-17T16:25:51.962Z,81.50
2022-08-17T16:28:18.450Z,81.90
2022-08-17T16:30:46.234Z,82.30
2022-08-17T16:33:15.136Z,82.70
2022-08-17T16:35:42.968Z,82.80
2022-08-17T16:38:12.422Z,83.00
2022-08-17T16:40:42.446Z,83.10
2022-08-17T16:43:12.023Z,83.40
2022-08-17T16:45:40.824Z,83.50
2022-08-17T16:48:09.923Z,83.80
2022-08-17T16:50:37.658Z,83.70
2022-08-17T16:53:18.252Z,83.90
2022-08-17T16:55:48.060Z,84.20
2022-08-17T16:58:16.186Z,84.40
2022-08-17T17:00:45.267Z,84.70
2022-08-17T17:03:19.215Z,84.80
2022-08-17T17:06:15.744Z,85.00
2022-08-17T17:08:57.390Z,85.60
2022-08-17T17:11:31.251Z,85.50
2022-08-17T17:14:03.030Z,85.50
2022-08-17T17:16:33.224Z,85.60
2022-08-17T17:19:05.171Z,85.50
2022-08-17T17:22:03.795Z,85.90
2022-08-17T17:24:50.354Z,86.20
2022-08-17T17:27:23.786Z,86.50
2022-08-17T17:30:24.265Z,86.80
2022-08-17T17:33:04.914Z,86.90
2022-08-17T17:35:34.746Z,87.30
2022-08-17T17:38:14.164Z,86.80
2022-08-17T17:40:45.752Z,88.10
2022-08-17T17:43:37.680Z,88.50
2022-08-17T17:46:27.293Z,88.80
2022-08-17T17:48:58.011Z,89.10
2022-08-17T17:52:03.568Z,89.30
2022-08-17T17:54:42.821Z,89.70
2022-08-17T17:57:32.561Z,90.10
2022-08-17T18:00:00.416Z,90.20
2022-08-17T18:02:54.895Z,90.30
2022-08-17T18:05:53.160Z,90.60
2022-08-17T18:08:49.431Z,90.80
2022-08-17T18:11:33.085Z,91.00
2022-08-17T18:14:24.898Z,91.40
2022-08-17T18:16:56.134Z,91.80
2022-08-17T18:19:25.812Z,92.00
2022-08-17T18:22:02.905Z,92.10
2022-08-17T18:24:33.739Z,92.30
2022-08-17T18:27:02.248Z,92.40
2022-08-17T18:29:47.154Z,91.90
2022-08-17T18:32:29.252Z,92.50
2022-08-17T18:35:08.754Z,92.70
2022-08-17T18:37:45.057Z,92.70
2022-08-17T18:40:21.282Z,92.80
2022-08-17T18:43:03.066Z,92.90
2022-08-17T18:45:46.577Z,92.80
2022-08-17T18:48:33.392Z,92.90
2022-08-17T18:51:26.336Z,93.00
2022-08-17T18:54:18.275Z,93.10
2022-08-17T18:56:59.951Z,93.20
2022-08-17T18:59:29.560Z,93.70
2022-08-17T19:02:03.246Z,94.10
2022-08-17T19:04:53.304Z,94.20
2022-08-17T19:07:31.583Z,94.50
2022-08-17T19:10:08.858Z,94.60
2022-08-17T19:13:12.543Z,94.70
2022-08-17T19:16:13.717Z,94.80
2022-08-17T19:18:48.358Z,94.90
2022-08-17T19:21:33.324Z,94.90
2022-08-17T19:24:19.368Z,95.10
2022-08-17T19:26:56.336Z,95.20
2022-08-17T19:29:36.940Z,95.20
2022-08-17T19:32:07.604Z,95.20
2022-08-17T19:34:37.825Z,95.30
2022-08-17T19:37:39.000Z,95.40
2022-08-17T19:40:24.474Z,95.40
2022-08-17T19:43:17.013Z,95.40
2022-08-17T19:45:56.233Z,95.60
2022-08-17T19:48:36.103Z,95.60
2022-08-17T19:51:17.834Z,95.80
2022-08-17T19:54:06.779Z,95.80
2022-08-17T19:57:02.420Z,95.90
2022-08-17T19:59:41.301Z,96.00
2022-08-17T20:02:48.551Z,96.10
2022-08-17T20:05:44.217Z,96.20
2022-08-17T20:08:28.127Z,96.30
2022-08-17T20:11:18.574Z,96.40
2022-08-17T20:14:11.893Z,96.70
2022-08-17T20:16:39.375Z,96.50
2022-08-17T20:19:27.784Z,96.50
2022-08-17T20:22:17.546Z,96.60
2022-08-17T20:24:51.012Z,96.60
2022-08-17T20:27:48.449Z,96.60
2022-08-17T20:30:23.260Z,96.60
2022-08-17T20:32:56.107Z,96.80
2022-08-17T20:35:32.875Z,96.80
2022-08-17T20:38:12.930Z,96.90
2022-08-17T20:41:00.992Z,97.10
2022-08-17T20:43:34.410Z,97.10
2022-08-17T20:46:26.793Z,97.20
2022-08-17T20:48:59.545Z,97.30
2022-08-17T20:51:29.851Z,97.30
2022-08-17T20:54:06.731Z,97.40
2022-08-17T20:56:43.465Z,97.50
2022-08-17T20:59:28.495Z,97.70
2022-08-17T21:02:18.604Z,97.70
2022-08-17T21:04:54.827Z,97.90
2022-08-17T21:07:52.379Z,97.90
2022-08-17T21:10:26.073Z,98.10
2022-08-17T21:13:01.708Z,98.30
2022-08-17T21:16:08.855Z,98.30
2022-08-17T21:19:02.456Z,98.40
2022-08-17T21:22:10.522Z,98.40
2022-08-17T21:25:23.018Z,98.50
2022-08-17T21:28:10.689Z,98.50
2022-08-17T21:30:40.998Z,98.70
2022-08-17T21:33:29.168Z,98.70
2022-08-17T21:35:59.809Z,98.80
2022-08-17T21:39:02.530Z,98.90
2022-08-17T21:41:34.233Z,98.80
2022-08-17T21:44:13.353Z,98.90
2022-08-17T21:46:46.742Z,99.00
2022-08-17T21:49:18.321Z,99.00
2022-08-17T21:51:54.421Z,99.10
2022-08-17T21:54:38.840Z,99.10
2022-08-17T21:57:16.457Z,99.00
2022-08-17T21:59:44.966Z,99.10
2022-08-17T22:02:21.551Z,99.00
2022-08-17T22:04:59.628Z,99.10
2022-08-17T22:07:38.312Z,99.10
2022-08-17T22:10:26.195Z,99.10
2022-08-17T22:13:19.759Z,99.10
2022-08-17T22:16:27.855Z,99.10
2022-08-17T22:18:59.016Z,99.10
2022-08-17T22:21:27.315Z,99.20
2022-08-17T22:24:15.195Z,99.30
2022-08-17T22:27:01.554Z,99.50
2022-08-17T22:29:57.141Z,99.40
2022-08-17T22:32:34.992Z,99.50
2022-08-17T22:35:35.745Z,99.50
2022-08-17T22:38:18.792Z,99.60
2022-08-17T22:40:55.311Z,99.80
2022-08-17T22:43:28.833Z,99.90
2022-08-17T22:45:59.764Z,99.90
2022-08-17T22:48:29.383Z,99.90
2022-08-17T22:51:12.220Z,99.90
2022-08-17T22:54:08.144Z,99.90
2022-08-17T22:56:56.030Z,99.90
2022-08-17T22:59:54.622Z,99.90
2022-08-17T23:02:26.153Z,99.90
2022-08-17T23:05:13.797Z,99.90
2022-08-17T23:07:43.313Z,99.90
2022-08-17T23:10:12.890Z,99.90
2022-08-17T23:12:40.911Z,99.90
2022-08-17T23:15:15.425Z,99.90
2022-08-17T23:17:45.357Z,99.90
2022-08-17T23:20:15.202Z,99.90
2022-08-17T23:22:51.677Z,99.90
2022-08-17T23:25:32.300Z,99.90
2022-08-17T23:28:01.919Z,99.90
2022-08-17T23:30:31.564Z,99.90
2022-08-17T23:33:05.974Z,99.90
2022-08-17T23:35:39.824Z,99.90
2022-08-17T23:38:13.026Z,99.90
2022-08-17T23:40:41.210Z,99.90
2022-08-17T23:43:25.279Z,99.90
2022-08-17T23:45:55.183Z,99.90
2022-08-17T23:48:27.816Z,99.90
2022-08-17T23:51:05.847Z,99.90
2022-08-17T23:53:36.357Z,99.90
2022-08-17T23:56:10.450Z,99.90
2022-08-17T23:58:42.244Z,99.90
